Time;durP1;ratioP1;P1;durP2;ratioP2;P2;SDS_P1;SDS_P2;PMS_P1;PMS_P2;Temp;Humidity;BMP_temperature;BMP_pressure;BME280_temperature;BME280_humidity;BME280_pressure;Samples;Min_cycle;Max_cycle;Signal;HPM_P1;HPM_P2
2023/06/25 00:00:17;;;;;;;23.67;19.97;;;18.70;99.90;;;;;;4953775;29;20457;-74
2023/06/25 00:02:44;;;;;;;22.90;20.80;;;18.70;99.90;;;;;;4951838;29;20453;-74
2023/06/25 00:05:11;;;;;;;23.90;22.00;;;18.70;99.90;;;;;;4953694;29;20460;-74
2023/06/25 00:07:40;;;;;;;24.73;22.40;;;18.60;99.90;;;;;;4953584;29;20503;-73
2023/06/25 00:10:07;;;;;;;20.50;18.87;;;18.60;99.90;;;;;;4953647;29;20958;-74
2023/06/25 00:12:34;;;;;;;24.50;22.30;;;18.60;99.90;;;;;;4953710;29;20982;-74
2023/06/25 00:15:01;;;;;;;26.47;22.13;;;18.50;99.90;;;;;;4953472;29;20500;-75
2023/06/25 00:17:28;;;;;;;23.63;21.77;;;18.50;99.90;;;;;;4953369;29;20656;-74
2023/06/25 00:19:55;;;;;;;23.80;21.50;;;18.40;99.90;;;;;;4953374;29;20994;-75
2023/06/25 00:22:21;;;;;;;24.13;22.30;;;18.30;99.90;;;;;;4953676;29;20494;-74
2023/06/25 00:24:50;;;;;;;25.13;22.87;;;18.30;99.90;;;;;;4953553;29;20460;-74
2023/06/25 00:27:17;;;;;;;21.83;19.93;;;18.20;99.90;;;;;;4953186;29;20737;-74
2023/06/25 00:29:44;;;;;;;22.67;20.70;;;18.20;99.90;;;;;;4953219;29;20459;-75
2023/06/25 00:32:12;;;;;;;23.17;21.07;;;18.10;99.90;;;;;;4953360;29;20457;-74
2023/06/25 00:34:41;;;;;;;21.60;19.70;;;18.10;99.90;;;;;;4953245;29;20464;-75
2023/06/25 00:37:16;;;;;;;21.87;20.07;;;18.00;99.90;;;;;;4953419;29;20872;-73
2023/06/25 00:39:44;;;;;;;21.70;19.60;;;17.90;99.90;;;;;;4953216;29;20460;-74
2023/06/25 00:42:12;;;;;;;22.17;20.17;;;17.90;99.90;;;;;;4953113;29;20452;-74
2023/06/25 00:44:40;;;;;;;23.87;21.70;;;17.80;99.90;;;;;;4953130;29;20942;-73
2023/06/25 00:47:12;;;;;;;22.80;21.00;;;17.80;99.90;;;;;;4953047;29;20560;-74
2023/06/25 00:49:39;;;;;;;22.80;20.90;;;17.80;99.90;;;;;;4953173;29;20520;-74
2023/06/25 00:52:08;;;;;;;21.83;20.20;;;17.70;99.90;;;;;;4953092;29;20468;-74
2023/06/25 00:54:38;;;;;;;22.43;20.63;;;17.70;99.90;;;;;;4953252;28;20856;-74
2023/06/25 00:57:06;;;;;;;21.10;19.10;;;17.70;99.90;;;;;;4953188;29;20449;-74
2023/06/25 00:59:35;;;;;;;22.90;21.00;;;17.60;99.90;;;;;;4952776;28;20813;-74
2023/06/25 01:02:10;;;;;;;21.17;19.33;;;17.60;99.90;;;;;;4953011;28;20464;-74
2023/06/25 01:04:44;;;;;;;20.87;19.20;;;17.50;99.90;;;;;;4952948;28;20961;-74
2023/06/25 01:07:17;;;;;;;21.53;19.83;;;17.50;99.90;;;;;;4952625;29;20488;-74
2023/06/25 01:09:48;;;;;;;20.27;18.57;;;17.40;99.90;;;;;;4952801;29;20452;-74
2023/06/25 01:12:15;;;;;;;20.03;18.43;;;17.30;99.90;;;;;;4952725;29;20562;-75
2023/06/25 01:14:43;;;;;;;19.70;18.00;;;17.20;99.90;;;;;;4952533;29;20998;-76
2023/06/25 01:17:10;;;;;;;19.33;17.80;;;17.20;99.90;;;;;;4952575;29;20449;-76
2023/06/25 01:19:37;;;;;;;20.13;18.63;;;17.20;99.90;;;;;;4952713;29;20459;-76
2023/06/25 01:22:05;;;;;;;21.03;19.03;;;17.20;99.90;;;;;;4952893;28;20452;-75
2023/06/25 01:24:34;;;;;;;20.50;18.80;;;17.10;99.90;;;;;;4952632;29;20457;-76
2023/06/25 01:27:04;;;;;;;20.50;18.90;;;17.10;99.90;;;;;;4952714;28;20452;-75
2023/06/25 01:29:32;;;;;;;20.20;18.30;;;17.10;99.90;;;;;;4952628;29;20457;-75
2023/06/25 01:31:59;;;;;;;20.43;18.73;;;17.20;99.90;;;;;;4952824;28;20922;-74
2023/06/25 01:34:26;;;;;;;19.43;17.93;;;17.20;99.90;;;;;;4952465;29;20452;-75
2023/06/25 01:36:54;;;;;;;21.07;19.33;;;17.20;99.90;;;;;;4952698;29;20460;-74
2023/06/25 01:39:21;;;;;;;20.13;18.53;;;17.10;99.90;;;;;;4952736;29;20464;-74
2023/06/25 01:41:49;;;;;;;19.87;18.17;;;17.10;99.90;;;;;;4952750;29;20479;-74
2023/06/25 01:44:20;;;;;;;21.00;19.03;;;17.00;99.90;;;;;;4952508;29;20457;-73
2023/06/25 01:46:46;;;;;;;20.47;18.70;;;17.00;99.90;;;;;;4952415;29;20448;-73
2023/06/25 01:49:13;;;;;;;18.70;17.40;;;17.00;99.90;;;;;;4952263;29;20499;-74
2023/06/25 01:51:40;;;;;;;20.50;18.90;;;16.90;99.90;;;;;;4952546;29;20478;-73
2023/06/25 01:54:06;;;;;;;20.33;18.63;;;16.90;99.90;;;;;;4952535;29;20449;-75
2023/06/25 01:56:33;;;;;;;20.03;18.60;;;16.80;99.90;;;;;;4952534;29;20457;-75
2023/06/25 01:59:01;;;;;;;19.73;18.10;;;16.80;99.90;;;;;;4952451;29;20699;-75
2023/06/25 02:01:29;;;;;;;19.43;18.13;;;16.70;99.90;;;;;;4952285;29;20655;-75
2023/06/25 02:03:56;;;;;;;18.10;16.80;;;16.60;99.90;;;;;;4952392;29;20942;-75
2023/06/25 02:06:22;;;;;;;19.43;17.73;;;16.70;99.90;;;;;;4952422;29;20457;-75
2023/06/25 02:08:49;;;;;;;18.60;17.17;;;16.60;99.90;;;;;;4952289;29;20484;-75
2023/06/25 02:11:16;;;;;;;18.63;17.23;;;16.50;99.90;;;;;;4952602;28;20464;-74
2023/06/25 02:13:42;;;;;;;19.30;17.80;;;16.50;99.90;;;;;;4955750;29;20483;-74
2023/06/25 02:16:10;;;;;;;18.90;17.50;;;16.50;99.90;;;;;;4955602;28;20487;-75
2023/06/25 02:18:38;;;;;;;18.27;16.83;;;16.50;99.90;;;;;;4955947;29;20448;-73
2023/06/25 02:21:04;;;;;;;18.77;17.17;;;16.50;99.90;;;;;;4942537;29;20464;-74
2023/06/25 02:23:31;;;;;;;18.63;17.10;;;16.60;99.90;;;;;;4936397;29;20460;-75
2023/06/25 02:25:58;;;;;;;17.60;16.50;;;16.60;99.90;;;;;;4936239;29;20449;-75
2023/06/25 02:28:25;;;;;;;17.90;16.67;;;16.60;99.90;;;;;;4936710;29;20500;-75
2023/06/25 02:30:51;;;;;;;16.57;15.37;;;16.50;99.90;;;;;;4936466;29;20978;-75
2023/06/25 02:33:19;;;;;;;18.53;17.37;;;16.50;99.90;;;;;;4936460;29;20979;-74
2023/06/25 02:35:46;;;;;;;18.63;17.33;;;16.40;99.90;;;;;;4936259;29;20464;-74
2023/06/25 02:38:13;;;;;;;19.80;18.40;;;16.40;99.90;;;;;;4936134;29;20463;-75
2023/06/25 02:40:40;;;;;;;20.10;18.70;;;16.30;99.90;;;;;;4936246;29;20454;-75
2023/06/25 02:43:06;;;;;;;17.87;16.67;;;16.30;99.90;;;;;;4936304;29;20453;-75
2023/06/25 02:45:33;;;;;;;20.60;18.90;;;16.40;99.90;;;;;;4936111;29;20464;-75
2023/06/25 02:48:00;;;;;;;20.53;18.40;;;16.30;99.90;;;;;;4935919;29;20665;-74
2023/06/25 02:50:27;;;;;;;19.60;17.90;;;16.30;99.90;;;;;;4935863;29;20454;-74
2023/06/25 02:52:54;;;;;;;19.50;18.10;;;16.30;99.90;;;;;;4935980;29;20457;-74
2023/06/25 02:55:21;;;;;;;19.93;18.50;;;16.20;99.90;;;;;;4936158;29;20454;-73
2023/06/25 02:57:48;;;;;;;19.97;18.50;;;16.20;99.90;;;;;;4936011;29;20446;-73
2023/06/25 03:00:16;;;;;;;19.50;18.17;;;16.20;99.90;;;;;;4935716;29;20449;-74
2023/06/25 03:02:43;;;;;;;19.60;18.10;;;16.20;99.90;;;;;;4935635;29;20464;-74
2023/06/25 03:05:09;;;;;;;20.40;18.67;;;16.10;99.90;;;;;;4935776;29;20461;-73
2023/06/25 03:07:38;;;;;;;18.53;17.33;;;16.10;99.90;;;;;;4935632;29;20496;-73
2023/06/25 03:10:05;;;;;;;19.43;17.90;;;16.10;99.90;;;;;;4935708;29;20490;-73
2023/06/25 03:12:32;;;;;;;17.73;16.43;;;16.10;99.90;;;;;;4935497;29;20824;-73
2023/06/25 03:14:59;;;;;;;18.37;17.07;;;16.10;99.90;;;;;;4935243;29;20712;-73
2023/06/25 03:17:25;;;;;;;20.10;18.53;;;16.10;99.90;;;;;;4935593;29;20456;-74
2023/06/25 03:19:52;;;;;;;19.33;17.97;;;16.10;99.90;;;;;;4935488;29;20936;-73
2023/06/25 03:22:19;;;;;;;20.23;18.77;;;16.10;99.90;;;;;;4935148;29;20453;-73
2023/06/25 03:24:47;;;;;;;20.23;18.37;;;16.10;99.90;;;;;;4934136;29;20457;-73
2023/06/25 03:27:14;;;;;;;19.93;18.60;;;16.00;99.90;;;;;;4934526;29;20513;-73
2023/06/25 03:29:40;;;;;;;20.27;18.57;;;16.00;99.90;;;;;;4934485;29;20800;-73
2023/06/25 03:32:07;;;;;;;20.17;18.77;;;16.00;99.90;;;;;;4934602;29;20457;-73
2023/06/25 03:34:34;;;;;;;19.50;18.20;;;16.00;99.90;;;;;;4934306;29;20453;-75
2023/06/25 03:37:01;;;;;;;18.60;17.40;;;16.00;99.90;;;;;;4934403;29;20476;-74
2023/06/25 03:39:27;;;;;;;19.67;18.20;;;16.00;99.90;;;;;;4934187;29;20446;-74
2023/06/25 03:41:55;;;;;;;19.87;18.57;;;15.90;99.90;;;;;;4934282;29;20936;-74
2023/06/25 03:44:22;;;;;;;18.57;17.27;;;15.90;99.90;;;;;;4934380;29;20465;-73
2023/06/25 03:46:49;;;;;;;19.70;18.40;;;15.90;99.90;;;;;;4934410;29;20462;-74
2023/06/25 03:49:15;;;;;;;20.57;18.93;;;15.90;99.90;;;;;;4933946;29;20496;-74
2023/06/25 03:51:42;;;;;;;18.67;17.47;;;15.90;99.90;;;;;;4934035;29;20460;-74
2023/06/25 03:54:09;;;;;;;18.50;16.83;;;15.90;99.90;;;;;;4933889;29;20943;-74
2023/06/25 03:56:35;;;;;;;19.20;18.00;;;15.90;99.90;;;;;;4934184;29;20457;-74
2023/06/25 03:59:03;;;;;;;19.43;17.93;;;15.90;99.90;;;;;;4933854;29;20465;-74
2023/06/25 04:01:30;;;;;;;18.13;17.03;;;15.90;99.90;;;;;;4933840;29;20477;-73
2023/06/25 04:03:57;;;;;;;18.10;17.00;;;15.90;99.90;;;;;;4933953;29;20457;-73
2023/06/25 04:06:24;;;;;;;17.90;16.60;;;15.90;99.90;;;;;;4933709;29;20480;-73
2023/06/25 04:08:50;;;;;;;18.43;16.73;;;15.90;99.90;;;;;;4933861;29;20489;-73
2023/06/25 04:11:17;;;;;;;17.90;16.60;;;15.90;99.90;;;;;;4933864;29;20458;-74
2023/06/25 04:13:44;;;;;;;19.17;17.67;;;15.90;99.90;;;;;;4933641;29;20504;-74
2023/06/25 04:16:12;;;;;;;18.33;17.00;;;15.90;99.90;;;;;;4933533;29;20786;-74
2023/06/25 04:18:42;;;;;;;19.37;17.97;;;15.90;99.90;;;;;;4933771;29;20454;-74
2023/06/25 04:21:09;;;;;;;19.80;18.20;;;15.90;99.90;;;;;;4933679;29;20504;-74
2023/06/25 04:23:36;;;;;;;18.17;16.87;;;15.90;99.90;;;;;;4933639;29;20461;-74
2023/06/25 04:26:02;;;;;;;17.00;15.93;;;16.30;99.90;;;;;;4933231;29;20453;-73
2023/06/25 04:28:29;;;;;;;16.33;15.23;;;16.90;99.90;;;;;;4933319;29;21003;-74
2023/06/25 04:30:56;;;;;;;16.50;15.20;;;17.50;99.90;;;;;;4933388;29;20462;-78
2023/06/25 04:33:24;;;;;;;15.53;14.63;;;18.00;99.90;;;;;;4933698;29;20468;-74
2023/06/25 04:35:50;;;;;;;15.87;14.87;;;18.30;99.90;;;;;;4932991;29;20457;-73
2023/06/25 04:38:17;;;;;;;16.53;15.50;;;18.60;99.90;;;;;;4932915;29;20465;-74
2023/06/25 04:40:44;;;;;;;16.60;15.40;;;18.90;99.90;;;;;;4933001;29;20454;-74
2023/06/25 04:43:10;;;;;;;15.57;14.67;;;19.00;99.90;;;;;;4933102;29;20453;-74
2023/06/25 04:45:37;;;;;;;16.37;15.37;;;19.10;99.90;;;;;;4933343;29;21018;-74
2023/06/25 04:48:04;;;;;;;16.80;15.80;;;19.10;99.90;;;;;;4933010;29;20465;-73
2023/06/25 04:50:32;;;;;;;17.17;15.97;;;19.30;99.90;;;;;;4932957;29;20803;-73
2023/06/25 04:52:59;;;;;;;15.73;14.73;;;19.50;99.90;;;;;;4933013;29;20464;-73
2023/06/25 04:55:26;;;;;;;15.67;14.73;;;19.70;99.90;;;;;;4933325;29;20457;-73
2023/06/25 04:57:53;;;;;;;17.60;16.50;;;19.80;99.90;;;;;;4933022;29;20497;-73
2023/06/25 05:00:21;;;;;;;17.00;15.90;;;20.00;99.90;;;;;;4929461;29;20461;-73
2023/06/25 05:02:48;;;;;;;15.40;14.50;;;20.40;99.90;;;;;;4927835;29;20992;-73
2023/06/25 05:05:14;;;;;;;15.50;14.60;;;20.70;99.90;;;;;;4932681;29;20809;-73
2023/06/25 05:07:42;;;;;;;15.47;14.27;;;20.90;99.90;;;;;;4932831;29;20454;-73
2023/06/25 05:10:09;;;;;;;16.80;15.50;;;21.20;99.90;;;;;;4932959;29;20493;-73
2023/06/25 05:12:36;;;;;;;15.87;14.93;;;21.50;99.90;;;;;;4932983;29;20478;-75
2023/06/25 05:15:03;;;;;;;15.73;14.80;;;21.80;99.90;;;;;;4932589;29;20490;-74
2023/06/25 05:17:30;;;;;;;16.80;15.43;;;22.00;99.90;;;;;;4932571;29;20796;-74
2023/06/25 05:19:56;;;;;;;15.50;14.60;;;22.20;99.90;;;;;;4932795;29;20460;-74
2023/06/25 05:22:23;;;;;;;16.10;15.10;;;22.30;99.90;;;;;;4933060;29;20468;-74
2023/06/25 05:24:51;;;;;;;15.87;14.90;;;22.70;99.90;;;;;;4932913;29;20945;-74
2023/06/25 05:27:18;;;;;;;16.17;15.27;;;22.70;99.50;;;;;;4940674;29;20456;-74
2023/06/25 05:29:45;;;;;;;14.80;13.90;;;23.10;98.60;;;;;;4942096;28;20512;-73
2023/06/25 05:32:11;;;;;;;14.23;13.43;;;23.40;97.60;;;;;;4942022;29;20526;-74
2023/06/25 05:34:38;;;;;;;14.30;13.50;;;23.60;96.70;;;;;;4940851;29;20455;-74
2023/06/25 05:37:06;;;;;;;15.90;15.10;;;23.80;96.00;;;;;;4942107;29;20471;-75
2023/06/25 05:39:32;;;;;;;15.80;14.70;;;24.00;95.50;;;;;;4942312;29;20952;-74
2023/06/25 05:42:00;;;;;;;15.50;14.70;;;24.30;95.00;;;;;;4940571;29;20445;-74
2023/06/25 05:44:27;;;;;;;15.13;14.33;;;24.60;94.20;;;;;;4941641;29;21037;-75
2023/06/25 05:46:54;;;;;;;16.33;15.33;;;24.60;93.50;;;;;;4943864;29;20458;-75
2023/06/25 05:49:21;;;;;;;15.93;15.03;;;24.90;92.80;;;;;;4944360;29;20493;-76
2023/06/25 05:51:48;;;;;;;15.00;14.10;;;25.10;91.90;;;;;;4945273;29;20464;-75
2023/06/25 05:54:15;;;;;;;15.27;14.30;;;25.40;91.10;;;;;;4945948;29;20450;-75
2023/06/25 05:56:41;;;;;;;15.80;14.70;;;25.30;90.70;;;;;;4944299;29;20448;-74
2023/06/25 05:59:09;;;;;;;15.03;14.23;;;25.50;90.60;;;;;;4945264;29;20444;-75
2023/06/25 06:01:38;;;;;;;15.77;14.97;;;25.90;89.60;;;;;;4946226;29;20445;-75
2023/06/25 06:04:05;;;;;;;16.10;15.00;;;26.50;87.20;;;;;;4939283;29;20824;-75
2023/06/25 06:06:32;;;;;;;14.83;14.00;;;26.80;84.80;;;;;;4944435;28;20444;-75
2023/06/25 06:08:58;;;;;;;14.87;14.07;;;27.10;83.60;;;;;;4945921;29;20898;-75
2023/06/25 06:11:27;;;;;;;14.87;14.17;;;26.90;83.10;;;;;;4944617;29;20461;-74
2023/06/25 06:13:54;;;;;;;14.30;13.60;;;27.10;82.30;;;;;;4943779;29;20567;-75
2023/06/25 06:16:22;;;;;;;15.33;14.53;;;27.60;79.60;;;;;;4943886;29;20936;-74
2023/06/25 06:18:49;;;;;;;15.07;14.27;;;27.70;78.90;;;;;;4944402;29;20440;-75
2023/06/25 06:21:15;;;;;;;15.90;15.00;;;28.10;77.00;;;;;;4945599;29;20467;-74
2023/06/25 06:23:42;;;;;;;14.67;13.87;;;28.20;75.30;;;;;;4943841;29;20815;-75
2023/06/25 06:26:09;;;;;;;15.40;14.33;;;28.30;74.80;;;;;;4944523;29;20448;-76
2023/06/25 06:28:35;;;;;;;15.00;14.10;;;28.90;72.30;;;;;;4945374;29;20456;-76
2023/06/25 06:31:02;;;;;;;15.57;14.77;;;29.30;69.20;;;;;;4943694;29;20441;-76
2023/06/25 06:33:31;;;;;;;15.43;14.50;;;30.10;67.20;;;;;;4944288;29;20456;-75
2023/06/25 06:35:58;;;;;;;15.07;14.27;;;30.50;65.00;;;;;;4945308;29;20444;-75
2023/06/25 06:38:24;;;;;;;14.67;13.97;;;30.50;63.90;;;;;;4949410;29;20441;-76
2023/06/25 06:40:51;;;;;;;15.57;14.77;;;30.20;62.50;;;;;;4954729;29;20448;-76
2023/06/25 06:43:18;;;;;;;14.53;13.83;;;30.50;62.00;;;;;;4954733;29;20456;-76
2023/06/25 06:45:44;;;;;;;16.43;15.23;;;30.40;61.60;;;;;;4954344;29;20872;-73
2023/06/25 06:48:11;;;;;;;13.97;13.27;;;30.50;61.70;;;;;;4954252;29;20461;-74
2023/06/25 06:50:39;;;;;;;14.87;14.17;;;30.80;60.50;;;;;;4954125;29;20579;-74
2023/06/25 06:53:06;;;;;;;15.77;14.90;;;30.80;60.20;;;;;;4954174;29;20464;-75
2023/06/25 06:55:33;;;;;;;15.73;14.70;;;30.80;59.60;;;;;;4954060;29;20459;-74
2023/06/25 06:58:00;;;;;;;15.47;14.60;;;31.00;58.60;;;;;;4954009;28;20480;-74
2023/06/25 07:00:26;;;;;;;14.80;14.10;;;31.20;57.90;;;;;;4954447;29;20463;-75
2023/06/25 07:02:55;;;;;;;15.90;15.00;;;31.40;57.30;;;;;;4954077;29;20973;-74
2023/06/25 07:05:22;;;;;;;14.70;14.00;;;32.00;56.20;;;;;;4953975;29;20524;-74
2023/06/25 07:07:50;;;;;;;15.30;14.50;;;31.80;56.20;;;;;;4954180;29;20452;-75
2023/06/25 07:10:17;;;;;;;15.53;14.40;;;32.20;55.20;;;;;;4954126;29;20515;-75
2023/06/25 07:12:43;;;;;;;15.37;14.53;;;32.60;53.70;;;;;;4954065;29;20507;-75
2023/06/25 07:15:10;;;;;;;15.67;14.87;;;32.80;53.30;;;;;;4953764;29;20477;-76
2023/06/25 07:17:37;;;;;;;15.67;14.87;;;33.10;53.00;;;;;;4954177;29;20807;-75
2023/06/25 07:20:04;;;;;;;15.97;15.17;;;33.30;52.10;;;;;;4953821;29;20954;-73
2023/06/25 07:22:32;;;;;;;16.10;15.37;;;33.80;51.10;;;;;;4953932;28;20463;-75
2023/06/25 13:03:12;;;;;;;18.40;17.40;;;34.00;32.40;;;;;;5597951;23;20873;-75
2023/06/25 13:05:39;;;;;;;17.97;16.87;;;34.40;31.50;;;;;;4952953;29;20483;-75
2023/06/25 13:08:05;;;;;;;18.53;17.53;;;34.30;31.20;;;;;;4949990;29;20452;-75
2023/06/25 13:10:32;;;;;;;17.70;16.80;;;34.70;30.50;;;;;;4946855;29;20496;-75
2023/06/25 13:12:59;;;;;;;17.53;16.63;;;35.90;30.10;;;;;;4944894;29;20457;-75
2023/06/25 13:15:25;;;;;;;18.83;17.83;;;36.90;29.30;;;;;;4952358;29;20782;-75
2023/06/25 13:17:52;;;;;;;18.97;17.87;;;37.10;28.40;;;;;;4951638;29;20437;-75
2023/06/25 13:20:20;;;;;;;19.57;18.20;;;36.80;28.60;;;;;;4951589;29;20448;-75
2023/06/25 13:22:47;;;;;;;18.10;17.20;;;37.00;28.30;;;;;;4951628;29;20480;-75
2023/06/25 13:25:13;;;;;;;19.40;18.37;;;36.60;28.70;;;;;;4951782;29;20503;-80
2023/06/25 13:27:40;;;;;;;18.93;17.93;;;36.70;28.20;;;;;;4951357;29;20452;-75
2023/06/25 13:30:08;;;;;;;18.50;17.60;;;35.90;28.90;;;;;;4952901;29;20892;-75
2023/06/25 13:32:35;;;;;;;18.13;17.23;;;35.10;29.20;;;;;;4952347;29;20464;-75
2023/06/25 13:35:02;;;;;;;17.90;16.93;;;35.20;29.60;;;;;;4952137;29;20486;-75
2023/06/25 13:37:30;;;;;;;17.90;16.90;;;35.40;29.50;;;;;;4951976;29;20445;-75
2023/06/25 13:39:56;;;;;;;18.50;17.47;;;35.60;29.50;;;;;;4949441;29;20548;-75
2023/06/25 13:42:24;;;;;;;18.30;17.30;;;34.90;29.50;;;;;;4951826;29;20448;-75
2023/06/25 13:44:51;;;;;;;19.40;18.40;;;34.50;30.10;;;;;;4951650;29;20453;-75
2023/06/25 13:47:17;;;;;;;18.20;17.40;;;35.00;29.80;;;;;;4951742;29;20451;-75
2023/06/25 13:49:44;;;;;;;18.90;17.83;;;35.20;29.40;;;;;;4951646;29;20483;-75
2023/06/25 13:52:11;;;;;;;18.53;17.50;;;36.00;29.20;;;;;;4951577;29;20441;-75
2023/06/25 13:54:39;;;;;;;16.77;15.87;;;35.30;28.80;;;;;;4951733;29;20507;-75
2023/06/25 13:57:05;;;;;;;17.70;16.70;;;34.70;29.20;;;;;;4951748;29;20946;-75
2023/06/25 13:59:32;;;;;;;16.17;15.27;;;34.60;28.80;;;;;;4951512;29;20923;-75
2023/06/25 14:01:59;;;;;;;18.10;17.00;;;34.80;28.80;;;;;;4951521;29;21184;-75
2023/06/25 14:04:25;;;;;;;18.60;17.50;;;34.50;28.80;;;;;;4951450;29;20481;-75
2023/06/25 14:06:52;;;;;;;17.20;16.30;;;34.90;29.20;;;;;;4949723;28;20459;-75
2023/06/25 14:09:19;;;;;;;17.03;16.23;;;34.30;28.90;;;;;;4952634;29;20559;-76
2023/06/25 14:11:47;;;;;;;17.73;16.63;;;34.00;29.40;;;;;;4954865;29;20451;-75
2023/06/25 14:14:14;;;;;;;19.20;18.00;;;34.00;29.60;;;;;;4956188;29;20449;-75
2023/06/25 14:16:40;;;;;;;18.70;17.60;;;33.70;29.80;;;;;;4954413;29;20449;-75
2023/06/25 14:19:07;;;;;;;17.13;16.23;;;34.40;29.80;;;;;;4954718;29;20958;-76
2023/06/25 14:21:34;;;;;;;17.23;16.10;;;35.10;29.10;;;;;;4957323;29;20456;-76
2023/06/25 14:24:01;;;;;;;18.03;16.93;;;35.30;28.80;;;;;;4957200;29;20456;-76
2023/06/25 14:26:27;;;;;;;17.70;16.50;;;35.50;28.60;;;;;;4956413;29;20452;-75
2023/06/25 14:28:55;;;;;;;17.03;16.13;;;34.90;28.80;;;;;;4954893;29;20453;-76
2023/06/25 14:31:22;;;;;;;16.53;15.63;;;34.00;29.20;;;;;;4954686;29;20494;-76
2023/06/25 14:33:49;;;;;;;16.93;16.03;;;33.70;29.90;;;;;;4954679;29;20535;-75
2023/06/25 14:36:15;;;;;;;18.60;17.50;;;34.10;29.80;;;;;;4951579;29;20441;-75
2023/06/25 14:38:42;;;;;;;18.10;17.10;;;34.30;29.20;;;;;;4954319;29;20453;-75
2023/06/25 14:41:09;;;;;;;16.97;16.07;;;34.40;29.10;;;;;;4954315;29;20448;-75
2023/06/25 14:43:35;;;;;;;19.10;18.00;;;34.60;28.70;;;;;;4954669;29;20444;-75
2023/06/25 14:46:03;;;;;;;16.70;15.80;;;33.90;28.90;;;;;;4953762;29;20448;-75
2023/06/25 14:48:30;;;;;;;17.03;16.10;;;33.00;29.40;;;;;;4953950;29;20454;-76
2023/06/25 14:50:57;;;;;;;17.17;16.30;;;32.80;29.90;;;;;;4954111;29;20488;-76
2023/06/25 14:53:24;;;;;;;17.57;16.67;;;33.30;30.00;;;;;;4954246;29;20804;-76
2023/06/25 14:55:50;;;;;;;19.00;17.53;;;33.80;29.40;;;;;;4954029;29;20823;-75
2023/06/25 14:58:17;;;;;;;17.93;16.93;;;34.00;29.20;;;;;;4953850;29;20802;-75
2023/06/25 15:00:44;;;;;;;16.53;15.70;;;33.90;29.10;;;;;;4953995;29;20926;-75
2023/06/25 15:03:12;;;;;;;17.23;16.33;;;33.60;29.10;;;;;;4953470;29;20485;-75
2023/06/25 15:05:38;;;;;;;15.50;14.60;;;33.10;30.00;;;;;;4953911;29;20448;-75
2023/06/25 15:08:05;;;;;;;16.10;15.20;;;32.80;29.80;;;;;;4954709;29;20953;-74
2023/06/25 15:10:33;;;;;;;16.70;15.80;;;32.70;30.20;;;;;;4953300;29;20487;-74
2023/06/25 15:13:00;;;;;;;17.50;16.50;;;32.90;30.30;;;;;;4954094;29;21228;-74
2023/06/25 15:15:26;;;;;;;16.97;16.00;;;32.70;30.40;;;;;;4953918;29;20456;-75
2023/06/25 15:17:53;;;;;;;16.57;15.57;;;32.00;31.10;;;;;;4953617;28;20449;-75
2023/06/25 15:20:21;;;;;;;15.57;14.67;;;31.40;31.20;;;;;;4953795;29;20452;-75
2023/06/25 15:22:48;;;;;;;17.20;16.20;;;31.20;32.50;;;;;;4953958;29;20448;-75
2023/06/25 15:25:15;;;;;;;16.60;15.50;;;31.30;32.30;;;;;;4954040;29;20445;-75
2023/06/25 15:27:42;;;;;;;15.87;15.00;;;31.20;31.80;;;;;;4954219;29;20460;-75
2023/06/25 15:30:09;;;;;;;16.60;15.60;;;31.00;31.70;;;;;;4953696;29;20848;-74
2023/06/25 15:32:36;;;;;;;15.97;15.10;;;30.90;31.80;;;;;;4951039;29;20460;-74
2023/06/25 15:35:03;;;;;;;16.70;15.70;;;30.90;31.70;;;;;;4953646;29;20532;-75
2023/06/25 15:37:31;;;;;;;16.20;15.20;;;30.90;31.90;;;;;;4953143;29;20453;-75
2023/06/25 15:39:58;;;;;;;16.60;15.60;;;31.00;32.50;;;;;;4949127;29;20449;-75
2023/06/25 15:42:24;;;;;;;16.17;15.27;;;31.00;33.00;;;;;;4951393;29;20459;-74
2023/06/25 15:44:51;;;;;;;15.97;15.07;;;30.90;32.70;;;;;;4953246;29;20456;-75
2023/06/25 15:47:18;;;;;;;16.63;15.67;;;30.90;32.70;;;;;;4951270;29;20456;-75
2023/06/25 15:49:45;;;;;;;15.77;14.97;;;30.90;32.80;;;;;;4952019;29;20452;-74
2023/06/25 15:52:12;;;;;;;17.13;15.93;;;30.90;32.30;;;;;;4953344;29;20488;-74
2023/06/25 15:54:40;;;;;;;15.90;15.00;;;30.80;32.80;;;;;;4951671;29;20448;-74
2023/06/25 15:57:06;;;;;;;17.20;16.20;;;30.70;33.20;;;;;;4953048;29;20441;-74
2023/06/25 15:59:33;;;;;;;17.37;16.20;;;30.60;33.50;;;;;;4952887;29;20456;-74
2023/06/25 16:02:00;;;;;;;17.23;16.30;;;30.60;33.30;;;;;;4952707;28;20465;-74
2023/06/25 16:04:26;;;;;;;18.20;17.03;;;30.60;33.90;;;;;;4952469;29;20487;-75
2023/06/25 16:06:53;;;;;;;17.13;16.23;;;30.60;33.70;;;;;;4952343;29;21145;-74
2023/06/25 16:09:20;;;;;;;17.30;16.30;;;30.60;33.60;;;;;;4952604;29;20489;-74
2023/06/25 16:11:50;;;;;;;17.17;16.27;;;30.70;34.10;;;;;;4952439;29;20495;-75
2023/06/25 16:14:17;;;;;;;15.57;14.67;;;30.70;33.80;;;;;;4956729;28;20539;-75
2023/06/25 16:16:44;;;;;;;16.37;15.40;;;30.70;34.00;;;;;;4953380;28;20496;-75
2023/06/25 16:19:10;;;;;;;16.40;15.40;;;30.70;33.90;;;;;;4959921;28;20444;-74
2023/06/25 16:21:37;;;;;;;15.70;14.80;;;30.60;33.00;;;;;;4961712;28;20527;-74
2023/06/25 16:24:04;;;;;;;16.83;15.83;;;30.50;32.40;;;;;;4962911;28;20448;-75
2023/06/25 16:26:31;;;;;;;17.07;16.17;;;30.50;32.80;;;;;;4961539;28;20448;-74
2023/06/25 16:28:59;;;;;;;16.37;15.40;;;30.60;32.70;;;;;;4961343;28;20451;-75
2023/06/25 16:31:26;;;;;;;15.90;15.00;;;30.50;33.10;;;;;;4961959;28;20487;-74
2023/06/25 16:33:52;;;;;;;16.50;15.60;;;30.50;33.50;;;;;;4961925;28;20500;-75
2023/06/25 16:36:19;;;;;;;16.43;15.17;;;30.50;33.40;;;;;;4961243;28;20451;-74
2023/06/25 16:38:46;;;;;;;17.07;16.07;;;30.40;33.90;;;;;;4962321;28;20444;-75
2023/06/25 16:41:12;;;;;;;16.73;15.83;;;30.50;33.90;;;;;;4961416;28;20715;-75
2023/06/25 16:43:39;;;;;;;15.77;14.77;;;30.50;34.20;;;;;;4961020;28;20447;-75
2023/06/25 16:46:07;;;;;;;15.50;14.50;;;30.50;34.90;;;;;;4962513;28;20443;-75
2023/06/25 16:48:34;;;;;;;16.90;16.00;;;30.40;34.20;;;;;;4961533;28;20449;-75
2023/06/25 16:51:01;;;;;;;15.87;15.00;;;30.30;34.00;;;;;;4960658;28;20488;-75
2023/06/25 16:53:27;;;;;;;15.60;14.60;;;30.30;34.70;;;;;;4958422;28;20440;-75
2023/06/25 16:55:54;;;;;;;15.70;14.73;;;30.20;35.00;;;;;;4961745;28;20498;-75
2023/06/25 16:58:21;;;;;;;15.37;14.47;;;30.20;34.80;;;;;;4962810;28;21607;-75
2023/06/25 17:00:48;;;;;;;15.93;15.03;;;30.20;35.30;;;;;;4957998;28;20927;-76
2023/06/25 17:03:16;;;;;;;17.73;16.73;;;30.20;34.80;;;;;;4961147;28;20475;-75
2023/06/25 17:05:43;;;;;;;16.60;15.70;;;30.20;35.70;;;;;;4962500;28;20444;-75
2023/06/25 17:08:10;;;;;;;17.10;16.20;;;30.20;35.50;;;;;;4960728;28;20540;-75
2023/06/25 17:10:36;;;;;;;16.63;15.73;;;30.20;35.90;;;;;;4961238;28;20491;-74
2023/06/25 17:13:03;;;;;;;17.10;16.10;;;30.20;36.30;;;;;;4962410;28;20440;-74
2023/06/25 17:15:30;;;;;;;16.87;15.73;;;30.20;36.30;;;;;;4960582;28;20448;-74
2023/06/25 17:17:57;;;;;;;18.20;17.10;;;30.20;36.50;;;;;;4960786;28;20448;-76
2023/06/25 17:20:25;;;;;;;16.93;15.93;;;30.00;35.70;;;;;;4961949;28;20452;-75
2023/06/25 17:22:51;;;;;;;16.83;15.93;;;30.00;35.80;;;;;;4960636;28;20451;-75
2023/06/25 17:25:18;;;;;;;16.67;15.60;;;30.00;35.60;;;;;;4960627;28;20455;-75
2023/06/25 17:27:45;;;;;;;16.80;15.90;;;29.90;35.60;;;;;;4961604;28;20451;-75
2023/06/25 17:30:12;;;;;;;16.77;15.77;;;30.00;36.10;;;;;;4956579;28;20449;-75
2023/06/25 17:32:38;;;;;;;17.00;15.90;;;29.90;36.40;;;;;;4964862;28;20980;-75
2023/06/25 17:35:06;;;;;;;16.60;15.60;;;30.00;36.00;;;;;;4965271;28;20565;-76
2023/06/25 17:37:34;;;;;;;17.67;16.57;;;29.80;35.40;;;;;;4959764;28;20456;-76
2023/06/25 17:40:01;;;;;;;18.90;17.80;;;29.80;35.10;;;;;;4956783;28;20452;-76
2023/06/25 17:42:27;;;;;;;16.90;16.00;;;29.80;35.50;;;;;;4952618;28;20456;-75
2023/06/25 17:44:54;;;;;;;17.67;16.67;;;29.80;35.80;;;;;;4955725;29;20535;-75
2023/06/25 17:47:21;;;;;;;18.03;17.03;;;29.80;36.40;;;;;;4955487;29;20463;-75
2023/06/25 17:49:48;;;;;;;17.60;16.60;;;29.70;36.00;;;;;;4955584;29;20467;-74
2023/06/25 17:52:14;;;;;;;16.87;15.97;;;29.70;36.30;;;;;;4956327;29;20551;-74
2023/06/25 17:54:42;;;;;;;17.13;16.13;;;29.60;36.30;;;;;;4955483;29;20699;-74
2023/06/25 17:57:09;;;;;;;17.83;16.73;;;29.60;36.10;;;;;;4952936;29;20441;-75
2023/06/25 17:59:36;;;;;;;16.50;15.53;;;29.60;36.30;;;;;;4955412;29;20448;-74
2023/06/25 18:02:03;;;;;;;18.73;17.53;;;29.60;36.50;;;;;;4954834;29;20870;-75
2023/06/25 18:04:30;;;;;;;18.00;16.90;;;29.60;36.80;;;;;;4954670;29;20479;-75